Time;durP1;ratioP1;P1;durP2;ratioP2;P2;SDS_P1;SDS_P2;PMS_P1;PMS_P2;Temp;Humidity;BMP_temperature;BMP_pressure;BME280_temperature;BME280_humidity;BME280_pressure;Samples;Min_cycle;Max_cycle;Signal;HPM_P1;HPM_P2
2021/11/14 00:01:20;;;;;;;47.10;35.63;;;;;;;15.53;28.55;94797.06;5074989;28;20044;-45
2021/11/14 00:03:48;;;;;;;44.58;34.97;;;;;;;16.01;28.10;94802.28;5075518;28;20051;-44
2021/11/14 00:06:16;;;;;;;44.17;34.92;;;;;;;15.44;29.01;94793.63;5080696;28;20047;-44
2021/11/14 00:08:43;;;;;;;46.05;35.13;;;;;;;14.96;29.41;94790.97;5092460;28;20052;-45
2021/11/14 00:11:13;;;;;;;45.88;36.00;;;;;;;14.60;29.38;94797.13;5054905;28;20055;-46
2021/11/14 00:13:42;;;;;;;44.38;36.08;;;;;;;14.26;29.85;94791.56;5062366;28;20052;-45
2021/11/14 00:16:10;;;;;;;45.53;35.38;;;;;;;13.78;30.75;94805.25;5061225;28;20048;-49
2021/11/14 00:18:41;;;;;;;47.08;36.08;;;;;;;13.80;30.96;94795.25;5062145;28;20135;-44
2021/11/14 00:21:10;;;;;;;46.80;35.13;;;;;;;14.17;30.85;94799.41;5068089;28;20040;-45
2021/11/14 00:23:38;;;;;;;44.92;36.83;;;;;;;14.84;30.00;94796.03;5075248;28;20055;-45
2021/11/14 00:26:05;;;;;;;44.97;36.58;;;;;;;15.08;29.68;94796.41;5070988;28;20052;-44
2021/11/14 00:28:32;;;;;;;52.90;38.10;;;;;;;14.78;30.07;94798.75;5095557;28;20042;-44
2021/11/14 00:31:11;;;;;;;48.53;38.03;;;;;;;14.72;29.83;94799.97;5077797;28;20320;-44
2021/11/14 00:33:42;;;;;;;47.58;36.38;;;;;;;14.69;30.36;94805.06;5081779;28;20056;-44
2021/11/14 00:36:11;;;;;;;42.80;33.95;;;;;;;14.49;30.23;94796.56;5073913;28;20049;-44
2021/11/14 00:38:38;;;;;;;42.15;34.97;;;;;;;14.81;29.90;94805.28;5073521;28;20362;-43
2021/11/14 00:41:07;;;;;;;43.70;35.00;;;;;;;14.59;30.59;94800.06;5074366;28;20036;-45
2021/11/14 00:43:36;;;;;;;44.20;34.55;;;;;;;14.86;29.40;94799.91;5074002;28;20052;-43
2021/11/14 00:46:05;;;;;;;43.42;34.55;;;;;;;15.12;28.37;94807.94;5077882;28;20063;-44
2021/11/14 00:48:33;;;;;;;40.83;34.10;;;;;;;14.50;29.35;94813.13;5084261;28;20057;-44
2021/11/14 00:51:03;;;;;;;43.28;33.42;;;;;;;13.48;31.16;94811.91;5054027;28;20048;-44
2021/11/14 00:53:31;;;;;;;39.38;32.78;;;;;;;13.81;30.61;94817.81;5065359;28;20048;-44
2021/11/14 00:55:58;;;;;;;39.55;33.55;;;;;;;14.73;29.55;94806.78;5077291;28;20147;-44
2021/11/14 00:58:25;;;;;;;41.58;33.05;;;;;;;14.67;29.97;94794.84;5094892;28;20366;-43
2021/11/14 01:00:54;;;;;;;49.90;38.80;;;;;;;15.43;28.80;94798.13;5085970;28;20056;-44
2021/11/14 01:03:21;;;;;;;51.83;38.58;;;;;;;14.79;29.81;94799.53;5063428;28;20055;-45
2021/11/14 01:05:48;;;;;;;55.63;39.80;;;;;;;14.81;30.02;94803.41;5074375;28;20040;-45
2021/11/14 01:08:15;;;;;;;82.25;54.53;;;;;;;14.82;29.46;94797.06;5087900;28;20059;-50
2021/11/14 01:10:46;;;;;;;64.22;44.70;;;;;;;14.24;29.18;94799.00;5094837;28;20055;-44
2021/11/14 01:13:14;;;;;;;63.83;45.05;;;;;;;14.49;29.30;94798.44;5086664;28;20474;-44
2021/11/14 01:15:42;;;;;;;48.97;36.08;;;;;;;13.91;30.92;94806.31;5069169;28;20037;-45
2021/11/14 01:18:10;;;;;;;48.83;38.75;;;;;;;14.02;30.15;94790.00;5069606;28;20053;-44
2021/11/14 01:20:40;;;;;;;53.53;40.60;;;;;;;14.24;30.30;94791.09;5070495;28;20061;-43
2021/11/14 01:23:10;;;;;;;45.90;36.90;;;;;;;14.51;29.34;94793.63;5079663;28;20055;-44
2021/11/14 01:25:38;;;;;;;43.05;35.22;;;;;;;14.49;29.69;94790.53;5068273;28;20048;-45
2021/11/14 01:28:05;;;;;;;45.45;36.08;;;;;;;13.91;31.02;94786.06;5045724;28;20059;-45
2021/11/14 01:30:35;;;;;;;46.65;36.17;;;;;;;14.46;30.57;94786.66;5054192;28;20049;-44
2021/11/14 01:33:04;;;;;;;41.72;33.80;;;;;;;14.56;31.04;94785.63;5077553;28;20044;-44
2021/11/14 01:35:31;;;;;;;41.97;33.17;;;;;;;15.32;29.55;94783.66;5074327;28;20052;-44
2021/11/14 01:38:00;;;;;;;41.58;32.60;;;;;;;14.62;30.38;94787.06;5055566;28;20060;-44
2021/11/14 01:40:34;;;;;;;38.70;32.30;;;;;;;14.75;29.86;94777.53;5054193;28;20044;-44
2021/11/14 01:43:03;;;;;;;39.40;32.00;;;;;;;14.75;29.79;94783.56;5071339;28;20052;-44
2021/11/14 01:45:31;;;;;;;37.60;32.38;;;;;;;14.71;30.22;94782.63;5074180;28;20040;-44
2021/11/14 01:47:58;;;;;;;40.97;33.25;;;;;;;14.44;31.78;94777.50;5070031;28;20380;-45
2021/11/14 01:50:25;;;;;;;38.58;31.88;;;;;;;14.73;30.56;94785.72;5067886;28;20063;-44
2021/11/14 01:52:54;;;;;;;39.35;31.40;;;;;;;15.12;30.53;94776.31;5079711;28;20052;-44
2021/11/14 01:55:25;;;;;;;34.70;30.85;;;;;;;14.45;31.24;94784.31;5073777;28;20044;-45
2021/11/14 01:57:53;;;;;;;39.70;31.52;;;;;;;14.03;32.05;94783.66;5073865;28;20045;-45
2021/11/14 02:00:29;;;;;;;35.40;30.77;;;;;;;13.46;33.67;94785.16;5061953;28;20075;-43
2021/11/14 02:02:57;;;;;;;36.85;30.92;;;;;;;13.54;31.92;94772.13;5076143;28;20443;-45
2021/11/14 02:05:25;;;;;;;53.00;33.85;;;;;;;13.17;32.29;94777.56;5073930;28;20359;-44
2021/11/14 02:07:55;;;;;;;44.42;33.72;;;;;;;13.03;32.60;94790.69;5073661;28;20060;-44
2021/11/14 02:10:23;;;;;;;45.72;36.00;;;;;;;13.17;32.72;94780.19;5073802;28;20474;-45
2021/11/14 02:12:50;;;;;;;44.33;35.17;;;;;;;13.15;32.50;94779.69;5073780;28;20048;-44
2021/11/14 02:15:18;;;;;;;44.33;35.28;;;;;;;12.98;33.39;94788.91;5075646;28;20051;-44
2021/11/14 02:17:45;;;;;;;44.10;34.25;;;;;;;13.22;32.67;94786.13;5056794;28;20048;-43
2021/11/14 02:20:13;;;;;;;41.30;33.10;;;;;;;13.02;33.14;94783.88;5069066;28;20044;-44
2021/11/14 02:22:40;;;;;;;39.90;33.75;;;;;;;13.16;33.49;94781.25;5084594;28;20047;-44
2021/11/14 02:25:09;;;;;;;40.58;32.17;;;;;;;13.22;32.41;94778.25;5076503;28;20044;-44
2021/11/14 02:27:38;;;;;;;41.22;33.42;;;;;;;13.22;32.68;94775.63;5076718;28;20057;-45
2021/11/14 02:30:09;;;;;;;40.63;32.83;;;;;;;13.18;32.64;94787.00;5097910;28;20059;-44
2021/11/14 02:32:36;;;;;;;41.00;33.53;;;;;;;13.19;32.45;94776.22;5096843;28;20362;-45
2021/11/14 02:35:04;;;;;;;40.13;33.63;;;;;;;13.38;32.19;94778.75;5078099;28;20043;-46
2021/11/14 02:37:31;;;;;;;44.05;34.55;;;;;;;13.36;31.66;94786.13;5077521;28;20052;-45
2021/11/14 02:40:00;;;;;;;41.47;32.80;;;;;;;13.60;31.45;94780.69;5077816;28;20053;-45
2021/11/14 02:42:27;;;;;;;42.03;33.40;;;;;;;13.41;31.63;94777.38;5062934;28;20051;-43
2021/11/14 02:44:54;;;;;;;40.83;32.42;;;;;;;13.76;31.15;94783.75;5076125;28;20048;-44
2021/11/14 02:47:21;;;;;;;39.17;32.75;;;;;;;14.01;30.67;94780.56;5076529;28;20455;-43
2021/11/14 02:49:48;;;;;;;42.80;31.70;;;;;;;13.84;30.94;94780.44;5068525;28;20060;-44
2021/11/14 02:52:15;;;;;;;40.67;31.95;;;;;;;13.97;30.37;94784.84;5077328;28;20057;-44
2021/11/14 02:54:42;;;;;;;39.30;31.90;;;;;;;14.34;29.89;94788.25;5075926;28;20047;-44
2021/11/14 02:57:10;;;;;;;40.67;32.97;;;;;;;13.98;30.70;94781.16;5075798;28;20052;-44
2021/11/14 02:59:37;;;;;;;39.03;31.90;;;;;;;13.21;32.12;94779.31;5093522;28;20370;-45
2021/11/14 03:02:04;;;;;;;39.20;31.90;;;;;;;12.78;32.41;94781.41;5097242;28;20047;-45
2021/11/14 03:04:32;;;;;;;39.70;32.78;;;;;;;13.04;31.72;94794.09;5081795;28;20055;-44
2021/11/14 03:07:00;;;;;;;39.95;32.13;;;;;;;12.63;31.97;94781.66;5067307;28;20063;-44
2021/11/14 03:09:27;;;;;;;45.03;32.33;;;;;;;12.77;31.89;94785.13;5092268;28;20435;-44
2021/11/14 03:11:56;;;;;;;44.30;33.40;;;;;;;12.97;31.65;94784.72;5096467;28;20055;-46
2021/11/14 03:14:42;;;;;;;42.97;31.40;;;;;;;12.40;32.39;94785.19;5087253;28;20077;-44
2021/11/14 03:17:09;;;;;;;43.88;33.50;;;;;;;12.20;33.04;94781.03;5076659;28;20044;-44
2021/11/14 03:19:36;;;;;;;43.88;34.80;;;;;;;12.27;32.79;94779.63;5061489;28;20052;-44
2021/11/14 03:22:04;;;;;;;41.25;31.83;;;;;;;12.33;32.68;94786.34;5076783;28;20059;-45
2021/11/14 03:24:31;;;;;;;41.97;31.75;;;;;;;12.05;33.25;94787.31;5075080;28;20074;-45
2021/11/14 03:26:58;;;;;;;42.00;33.80;;;;;;;11.91;34.41;94789.06;5075827;28;20059;-44
2021/11/14 03:29:25;;;;;;;43.13;34.30;;;;;;;11.82;34.83;94788.94;5091588;28;20047;-44
2021/11/14 03:31:52;;;;;;;44.40;35.63;;;;;;;11.39;35.93;94788.16;5062124;28;20059;-44
2021/11/14 03:34:19;;;;;;;46.30;35.20;;;;;;;11.04;36.66;94794.56;5068221;28;20052;-44
2021/11/14 03:36:46;;;;;;;45.38;34.30;;;;;;;11.24;36.44;94786.50;5060476;28;20367;-44
2021/11/14 03:39:13;;;;;;;46.60;34.33;;;;;;;11.29;36.28;94794.28;5087517;28;20043;-44
2021/11/14 03:41:41;;;;;;;45.72;34.20;;;;;;;11.44;35.37;94786.25;5095471;28;20203;-45
2021/11/14 03:44:10;;;;;;;44.70;34.92;;;;;;;11.36;35.90;94793.94;5085363;28;20081;-45
2021/11/14 03:46:38;;;;;;;41.55;32.22;;;;;;;11.59;35.51;94798.38;5057938;28;20474;-44
2021/11/14 03:49:05;;;;;;;42.80;32.63;;;;;;;11.57;35.09;94794.47;5068724;28;20083;-43
2021/11/14 03:51:33;;;;;;;42.08;32.35;;;;;;;12.04;33.55;94798.84;5049131;28;20059;-43
2021/11/14 03:54:00;;;;;;;39.95;32.22;;;;;;;11.71;35.00;94795.34;5064780;28;20055;-45
2021/11/14 03:56:29;;;;;;;37.63;31.65;;;;;;;11.62;35.59;94797.03;5075751;28;20047;-44
2021/11/14 03:58:56;;;;;;;38.28;32.25;;;;;;;11.68;34.85;94780.97;5086562;28;20434;-43
2021/11/14 04:01:24;;;;;;;36.92;30.67;;;;;;;11.69;34.38;94781.75;5095303;28;20059;-44
2021/11/14 04:03:52;;;;;;;34.92;29.92;;;;;;;11.86;33.99;94789.16;5087323;28;20052;-45
2021/11/14 04:06:21;;;;;;;37.85;31.05;;;;;;;11.87;33.84;94794.09;5074800;28;20052;-46
2021/11/14 04:08:49;;;;;;;38.13;30.48;;;;;;;12.31;33.94;94798.97;5075559;28;20473;-49
2021/11/14 04:11:16;;;;;;;37.67;30.73;;;;;;;12.34;33.14;94793.16;5076158;28;20475;-44
2021/11/14 04:13:43;;;;;;;38.25;32.33;;;;;;;11.68;35.19;94791.44;5075786;28;20044;-44
2021/11/14 04:16:11;;;;;;;36.13;30.85;;;;;;;11.77;35.43;94803.91;5074713;28;20040;-44
2021/11/14 04:18:39;;;;;;;39.90;32.83;;;;;;;11.71;35.81;94796.13;5060732;28;20391;-44
2021/11/14 04:21:07;;;;;;;38.10;31.90;;;;;;;11.25;37.07;94803.75;5055292;28;20053;-44
2021/11/14 04:23:35;;;;;;;39.33;32.63;;;;;;;11.66;36.50;94809.28;5055414;28;20052;-45
2021/11/14 04:26:03;;;;;;;37.17;30.98;;;;;;;11.52;36.71;94803.19;5067790;28;20053;-43
2021/11/14 04:28:30;;;;;;;39.90;31.65;;;;;;;11.65;36.60;94807.72;5065781;28;20364;-45
2021/11/14 04:30:57;;;;;;;37.88;31.42;;;;;;;11.64;36.79;94800.13;5075422;28;20047;-44
2021/11/14 04:33:25;;;;;;;38.60;31.77;;;;;;;11.65;36.52;94812.94;5074144;28;20059;-43
2021/11/14 04:35:52;;;;;;;40.65;31.85;;;;;;;11.64;36.75;94802.75;5075011;28;20123;-44
2021/11/14 04:38:20;;;;;;;40.65;33.08;;;;;;;11.52;37.04;94797.94;5074804;28;20079;-45
2021/11/14 04:40:49;;;;;;;39.65;32.38;;;;;;;11.58;37.14;94801.28;5074177;28;20048;-44
2021/11/14 04:43:18;;;;;;;42.35;32.10;;;;;;;11.51;37.33;94796.38;5073664;28;20048;-44
2021/11/14 04:45:47;;;;;;;39.53;31.25;;;;;;;11.38;37.23;94794.44;5075102;28;20430;-44
2021/11/14 04:48:15;;;;;;;39.85;31.65;;;;;;;11.34;37.32;94804.69;5074376;28;20063;-45
2021/11/14 04:50:42;;;;;;;39.22;31.58;;;;;;;11.28;37.88;94812.91;5055298;28;20049;-43
2021/11/14 04:53:09;;;;;;;38.88;31.45;;;;;;;11.27;37.64;94816.56;5054158;28;20056;-45
2021/11/14 04:55:37;;;;;;;41.28;32.20;;;;;;;11.39;37.63;94819.56;5070251;28;20047;-45
2021/11/14 04:58:05;;;;;;;40.50;30.90;;;;;;;11.21;38.23;94825.53;5074535;28;20045;-44
2021/11/14 05:00:39;;;;;;;39.35;31.25;;;;;;;11.34;37.53;94819.63;5074327;28;20060;-44
2021/11/14 05:03:06;;;;;;;40.58;31.38;;;;;;;11.09;38.43;94825.91;5073578;28;20052;-43
2021/11/14 05:05:34;;;;;;;38.97;31.60;;;;;;;11.07;38.67;94823.56;5075539;28;20352;-44
2021/11/14 05:08:01;;;;;;;41.22;30.75;;;;;;;11.19;38.20;94825.00;5062962;28;20051;-44
2021/11/14 05:10:28;;;;;;;40.40;31.67;;;;;;;11.19;38.46;94841.53;5095292;28;20441;-44
2021/11/14 05:12:55;;;;;;;43.20;32.05;;;;;;;11.39;37.64;94832.66;5094924;28;20055;-45
2021/11/14 05:15:22;;;;;;;41.65;31.80;;;;;;;11.35;37.82;94831.66;5075006;28;20059;-52
2021/11/14 05:17:49;;;;;;;40.17;31.45;;;;;;;11.45;37.98;94823.69;5072441;28;20336;-44
2021/11/14 05:20:16;;;;;;;42.42;31.20;;;;;;;11.36;38.24;94830.59;5067580;28;20048;-44
2021/11/14 05:22:44;;;;;;;40.17;31.35;;;;;;;11.19;38.51;94840.72;5074384;28;20048;-44
2021/11/14 05:25:11;;;;;;;39.42;30.95;;;;;;;11.43;38.25;94836.25;5074222;28;20041;-45
2021/11/14 05:27:38;;;;;;;41.53;31.00;;;;;;;11.41;37.84;94833.16;5073770;28;20477;-44
2021/11/14 05:30:07;;;;;;;39.15;30.23;;;;;;;11.29;38.37;94835.38;5070251;28;20049;-44
2021/11/14 05:32:34;;;;;;;38.83;30.70;;;;;;;11.37;38.36;94840.78;5054522;28;20064;-45
2021/11/14 05:35:02;;;;;;;41.20;31.38;;;;;;;11.42;38.56;94845.19;5068079;28;20055;-46
2021/11/14 05:37:29;;;;;;;38.42;29.58;;;;;;;11.34;38.78;94846.56;5073918;28;20052;-44
2021/11/14 05:39:57;;;;;;;38.78;29.20;;;;;;;11.53;38.32;94846.63;5093174;28;20465;-45
2021/11/14 05:42:24;;;;;;;38.33;29.40;;;;;;;11.53;38.20;94857.09;5094004;28;20052;-45
2021/11/14 05:44:52;;;;;;;35.67;27.98;;;;;;;11.11;38.82;94866.44;5076604;28;20044;-45
2021/11/14 05:47:19;;;;;;;34.28;27.33;;;;;;;11.18;39.18;94860.09;5093619;28;20058;-44
2021/11/14 05:49:46;;;;;;;38.75;28.85;;;;;;;11.26;38.64;94867.34;5065679;28;20056;-43
2021/11/14 05:52:13;;;;;;;39.65;28.88;;;;;;;11.54;38.74;94860.50;5074276;28;20052;-44
2021/11/14 05:54:40;;;;;;;38.40;30.42;;;;;;;11.23;38.99;94873.16;5073858;28;20052;-45
2021/11/14 05:57:07;;;;;;;44.80;32.03;;;;;;;11.36;39.37;94870.63;5073729;28;20040;-46
2021/11/14 06:02:24;;;;;;;39.95;30.60;;;;;;;11.34;38.83;94871.97;5094190;28;20358;-44
2021/11/14 06:07:31;;;;;;;42.97;31.98;;;;;;;11.42;39.21;94879.22;5073772;28;20048;-44
2021/11/14 06:10:00;;;;;;;41.67;30.80;;;;;;;11.68;38.56;94885.72;5073831;28;20040;-44
2021/11/14 06:12:28;;;;;;;41.88;31.88;;;;;;;11.40;39.41;94889.19;5074002;28;20047;-44
2021/11/14 06:14:55;;;;;;;41.15;30.85;;;;;;;11.51;38.95;94889.88;5073886;28;20439;-45
2021/11/14 06:17:23;;;;;;;42.60;31.05;;;;;;;11.36;39.43;94888.97;5074082;28;20459;-47
2021/11/14 06:19:50;;;;;;;45.40;32.28;;;;;;;11.39;39.14;94888.41;5064418;28;20518;-43
2021/11/14 06:22:18;;;;;;;46.28;32.15;;;;;;;11.32;39.35;94893.19;5073412;28;20051;-46
2021/11/14 06:24:46;;;;;;;42.67;32.15;;;;;;;11.50;39.13;94894.31;5073802;28;20048;-45
2021/11/14 06:27:13;;;;;;;39.83;30.50;;;;;;;11.30;39.10;94894.53;5073683;28;20060;-44
2021/11/14 06:29:40;;;;;;;47.47;33.58;;;;;;;11.76;38.57;94886.97;5072775;28;20059;-44
2021/11/14 06:32:08;;;;;;;43.03;31.98;;;;;;;11.44;38.68;94903.28;5093944;28;20466;-47
2021/11/14 06:34:36;;;;;;;38.20;29.33;;;;;;;11.59;38.66;94889.25;5084125;28;20059;-45
2021/11/14 06:37:03;;;;;;;36.15;25.23;;;;;;;11.33;38.48;94891.34;5073601;28;20428;-45
2021/11/14 06:39:31;;;;;;;30.42;24.10;;;;;;;11.22;38.70;94882.84;5073429;28;20052;-45
2021/11/14 06:41:58;;;;;;;30.45;23.80;;;;;;;11.64;38.22;94892.56;5072702;28;20455;-45
2021/11/14 06:44:25;;;;;;;31.42;23.90;;;;;;;12.19;37.00;94895.59;5072742;28;20048;-45
2021/11/14 06:46:52;;;;;;;30.48;23.67;;;;;;;12.48;36.64;94892.06;5056064;28;20051;-44
2021/11/14 06:49:19;;;;;;;33.40;24.73;;;;;;;12.48;37.15;94895.44;5049527;28;20073;-46
2021/11/14 06:51:46;;;;;;;34.65;24.55;;;;;;;12.29;37.60;94905.97;5053139;28;20066;-45
2021/11/14 06:54:13;;;;;;;35.10;25.85;;;;;;;12.21;38.19;94897.94;5058065;28;20056;-44
2021/11/14 06:56:40;;;;;;;34.55;25.77;;;;;;;12.27;37.97;94897.59;5060297;28;20048;-46
2021/11/14 06:59:07;;;;;;;38.28;27.60;;;;;;;12.19;38.05;94900.06;5069003;28;20052;-44
2021/11/14 07:01:35;;;;;;;33.25;24.77;;;;;;;12.04;38.85;94901.06;5096161;28;20048;-46
2021/11/14 07:04:02;;;;;;;35.17;26.08;;;;;;;12.29;38.41;94900.72;5084715;28;20044;-47
2021/11/14 07:06:29;;;;;;;35.92;25.33;;;;;;;12.52;38.33;94893.84;5065118;28;20474;-51
2021/11/14 07:08:56;;;;;;;36.28;26.35;;;;;;;12.44;38.17;94897.09;5078217;28;20415;-45
2021/11/14 07:11:23;;;;;;;36.63;26.20;;;;;;;12.71;37.38;94895.66;5085511;28;20049;-52
2021/11/14 07:13:50;;;;;;;41.80;28.23;;;;;;;12.59;38.28;94894.25;5065556;28;20044;-45
2021/11/14 07:16:17;;;;;;;35.15;25.50;;;;;;;11.93;39.21;94889.13;5063466;28;20635;-44
2021/11/14 07:18:45;;;;;;;32.70;24.27;;;;;;;15.14;33.62;94907.69;5064862;28;20063;-60
2021/11/14 07:21:12;;;;;;;31.80;22.75;;;;;;;17.92;28.24;94897.00;5069540;28;20127;-55
2021/11/14 07:23:39;;;;;;;30.10;22.90;;;;;;;18.13;27.49;94897.81;5064545;28;20053;-54
2021/11/14 07:26:06;;;;;;;27.23;21.08;;;;;;;16.16;30.59;94897.88;5076283;28;20049;-59
2021/11/14 07:28:33;;;;;;;27.77;21.48;;;;;;;16.23;30.76;94903.47;5063338;28;20083;-47
2021/11/14 07:31:00;;;;;;;28.10;20.83;;;;;;;16.23;30.90;94901.59;5082953;28;20375;-46
2021/11/14 07:33:27;;;;;;;27.80;20.35;;;;;;;16.54;30.44;94898.84;5066462;28;20053;-42
2021/11/14 07:35:54;;;;;;;27.17;20.13;;;;;;;15.63;31.94;94885.63;5055828;28;20057;-55
2021/11/14 07:38:21;;;;;;;24.63;20.02;;;;;;;17.94;28.28;94900.88;5051533;28;20056;-49
2021/11/14 07:40:49;;;;;;;27.45;20.95;;;;;;;19.52;25.67;94892.94;5055122;28;20049;-47
2021/11/14 07:43:16;;;;;;;28.15;21.45;;;;;;;20.14;24.63;94897.19;5050440;28;20056;-50
2021/11/14 07:45:43;;;;;;;23.23;19.70;;;;;;;20.06;24.42;94898.06;5058421;28;20049;-51
2021/11/14 07:48:11;;;;;;;23.80;19.35;;;;;;;19.24;25.56;94913.19;5054646;28;20056;-54
2021/11/14 07:50:40;;;;;;;25.67;20.15;;;;;;;15.06;32.04;94903.91;5057002;28;20060;-51
2021/11/14 07:53:07;;;;;;;23.10;18.75;;;;;;;14.35;33.31;94898.41;5058934;28;20084;-54
2021/11/14 07:55:35;;;;;;;24.92;20.15;;;;;;;14.18;34.00;94901.66;5064610;28;20048;-46
2021/11/14 07:58:06;;;;;;;26.25;21.27;;;;;;;14.12;34.39;94894.97;5056299;28;20049;-58
2021/11/14 08:00:35;;;;;;;26.50;21.33;;;;;;;14.30;34.22;94895.09;5091597;28;20059;-63
2021/11/14 08:03:03;;;;;;;25.02;19.98;;;;;;;14.63;33.57;94896.50;5078598;28;20051;-59
2021/11/14 08:05:31;;;;;;;25.77;21.02;;;;;;;14.38;33.65;94910.19;5081436;28;20056;-58
2021/11/14 08:07:59;;;;;;;28.98;22.77;;;;;;;14.26;34.40;94897.53;5075846;28;20062;-47
2021/11/14 08:10:27;;;;;;;31.67;24.38;;;;;;;14.16;34.28;94895.91;5082662;28;20055;-48
2021/11/14 08:12:54;;;;;;;31.17;24.52;;;;;;;14.06;34.42;94898.78;5096102;28;20059;-47
2021/11/14 08:15:22;;;;;;;29.90;23.77;;;;;;;14.44;33.87;94894.03;5067859;28;20059;-46
2021/11/14 08:17:49;;;;;;;29.90;23.42;;;;;;;15.77;31.17;94902.09;5066916;28;20043;-60
2021/11/14 08:20:16;;;;;;;33.30;24.92;;;;;;;15.19;32.13;94886.50;5063755;28;20055;-45
2021/11/14 08:22:44;;;;;;;30.05;24.02;;;;;;;16.30;30.18;94890.59;5071989;28;20056;-51
2021/11/14 08:25:13;;;;;;;32.25;24.70;;;;;;;16.73;29.48;94889.88;5065864;28;20044;-47
2021/11/14 08:27:40;;;;;;;32.83;25.48;;;;;;;15.73;31.22;94903.81;5060433;28;20048;-51
2021/11/14 08:30:10;;;;;;;34.33;26.05;;;;;;;14.73;32.95;94906.78;5060314;28;20048;-50
2021/11/14 08:32:38;;;;;;;35.30;27.15;;;;;;;14.45;34.18;94906.09;5055543;28;20055;-56
2021/11/14 08:35:06;;;;;;;39.17;28.65;;;;;;;14.29;35.03;94911.94;5070571;28;20049;-63
2021/11/14 08:37:34;;;;;;;44.10;30.10;;;;;;;14.31;35.10;94907.16;5062656;28;20049;-47
2021/11/14 08:40:03;;;;;;;44.05;31.05;;;;;;;14.19;35.13;94903.22;5064797;28;20049;-67
2021/11/14 08:42:31;;;;;;;51.35;37.22;;;;;;;14.02;35.31;94907.50;5075280;28;20382;-48
2021/11/14 08:44:58;;;;;;;52.22;39.25;;;;;;;14.50;34.82;94902.56;5075302;28;20045;-54
2021/11/14 08:47:25;;;;;;;46.05;35.10;;;;;;;14.56;34.55;94896.13;5075014;28;20045;-49
2021/11/14 08:49:53;;;;;;;48.53;34.70;;;;;;;14.45;34.80;94900.84;5050487;28;20069;-49
2021/11/14 08:52:20;;;;;;;43.03;32.25;;;;;;;14.62;34.19;94902.06;5055060;28;20060;-49
2021/11/14 08:54:47;;;;;;;38.83;29.00;;;;;;;15.88;31.36;94908.69;5054239;28;20350;-49
2021/11/14 08:57:17;;;;;;;37.83;29.38;;;;;;;14.77;33.20;94912.22;5056696;28;20052;-52
2021/11/14 08:59:46;;;;;;;38.40;30.92;;;;;;;15.91;33.44;94908.06;5055066;28;20064;-51
2021/11/14 09:02:14;;;;;;;36.58;29.40;;;;;;;14.78;33.95;94898.78;5054393;28;20371;-52
2021/11/14 09:04:42;;;;;;;43.67;32.17;;;;;;;15.15;35.48;94896.84;5059814;28;20048;-47
2021/11/14 09:07:09;;;;;;;38.08;30.63;;;;;;;14.98;33.71;94896.75;5063289;28;20052;-49
2021/11/14 09:09:36;;;;;;;36.60;28.70;;;;;;;14.91;33.43;94891.91;5054760;28;20048;-49
2021/11/14 09:12:04;;;;;;;40.83;30.02;;;;;;;15.20;33.30;94877.50;5037072;28;20048;-51
2021/11/14 09:14:32;;;;;;;42.15;33.40;;;;;;;14.81;34.32;94892.13;5057803;28;20052;-48
2021/11/14 09:16:59;;;;;;;44.25;34.28;;;;;;;14.86;34.17;94889.41;5073687;28;20082;-48
2021/11/14 09:19:26;;;;;;;43.05;31.45;;;;;;;15.34;32.96;94894.75;5064678;28;20083;-51
2021/11/14 09:21:53;;;;;;;41.97;31.35;;;;;;;16.56;30.28;94883.47;5067231;28;20045;-50
2021/11/14 09:24:20;;;;;;;37.90;29.13;;;;;;;17.59;28.59;94884.38;5055812;28;20055;-47
2021/11/14 09:26:47;;;;;;;37.33;30.42;;;;;;;17.69;28.33;94884.03;5064362;28;20049;-53
2021/11/14 09:29:15;;;;;;;37.17;30.02;;;;;;;17.16;29.46;94882.63;5073877;28;20051;-51
2021/11/14 09:31:42;;;;;;;39.92;30.42;;;;;;;16.97;30.35;94876.94;5064194;28;20056;-51
2021/11/14 09:34:10;;;;;;;36.90;30.23;;;;;;;17.15;29.84;94875.81;5054227;28;20045;-44
2021/11/14 09:36:37;;;;;;;39.95;31.23;;;;;;;18.17;28.19;94877.56;5066859;28;20470;-44
2021/11/14 09:39:11;;;;;;;43.25;33.13;;;;;;;16.32;31.95;94876.00;5063183;28;20052;-43
2021/11/14 09:41:45;;;;;;;44.35;34.17;;;;;;;15.88;32.50;94874.41;5063614;28;20048;-51
2021/11/14 09:44:15;;;;;;;44.75;34.28;;;;;;;15.76;32.98;94873.41;5062645;28;20063;-45
2021/11/14 09:47:02;;;;;;;44.65;35.95;;;;;;;15.59;33.18;94872.28;5080942;28;20048;-47
2021/11/14 09:49:31;;;;;;;45.28;34.40;;;;;;;15.22;33.22;94865.59;5066688;28;20056;-46
2021/11/14 09:52:00;;;;;;;37.30;30.63;;;;;;;15.27;33.57;94856.78;5053373;28;20452;-50
2021/11/14 09:54:31;;;;;;;40.25;30.92;;;;;;;15.54;32.88;94853.94;5055276;28;20049;-50
2021/11/14 09:56:58;;;;;;;38.55;31.67;;;;;;;15.78;32.85;94860.72;5084974;28;20051;-52
2021/11/14 09:59:26;;;;;;;35.38;29.75;;;;;;;15.99;32.44;94851.91;5094274;28;20051;-50
2021/11/14 10:01:55;;;;;;;39.47;30.85;;;;;;;15.90;32.85;94853.00;5064880;28;20059;-49
2021/11/14 10:04:23;;;;;;;37.85;30.23;;;;;;;16.19;32.74;94849.78;5054165;28;20041;-49
2021/11/14 10:07:14;;;;;;;38.65;31.38;;;;;;;16.61;32.33;94841.06;5083647;28;20351;-47
2021/11/14 10:09:44;;;;;;;43.55;36.42;;;;;;;16.83;32.07;94836.72;5094145;28;20044;-47
2021/11/14 10:12:21;;;;;;;44.80;35.58;;;;;;;16.63;31.89;94838.13;5068246;28;20410;-47
2021/11/14 10:15:11;;;;;;;45.15;35.50;;;;;;;17.06;30.91;94835.44;5071728;28;20048;-59
2021/11/14 10:17:43;;;;;;;43.35;34.85;;;;;;;16.94;31.71;94830.81;5051829;28;20048;-45
2021/11/14 10:20:21;;;;;;;45.03;36.10;;;;;;;17.06;31.93;94819.59;5043725;28;20045;-52
2021/11/14 10:22:52;;;;;;;43.70;35.92;;;;;;;16.55;31.58;94815.94;5064463;28;20052;-48
2021/11/14 10:25:20;;;;;;;47.17;36.55;;;;;;;17.39;31.38;94816.34;5062808;28;20044;-47
2021/11/14 10:27:52;;;;;;;43.13;35.10;;;;;;;17.38;30.83;94809.53;5073849;28;20340;-53
2021/11/14 10:30:27;;;;;;;43.00;36.30;;;;;;;17.52;30.63;94804.81;5073205;28;20071;-53
2021/11/14 10:33:01;;;;;;;43.80;36.15;;;;;;;16.60;31.74;94801.78;5053847;28;20268;-51
2021/11/14 10:35:29;;;;;;;46.63;37.90;;;;;;;17.57;30.82;94810.69;5068119;28;20055;-53
2021/11/14 10:37:59;;;;;;;45.08;36.80;;;;;;;18.02;29.44;94802.19;5096214;28;20461;-48
2021/11/14 10:40:30;;;;;;;45.00;35.63;;;;;;;18.06;29.39;94792.53;5098057;28;20365;-47
2021/11/14 10:43:01;;;;;;;44.78;37.35;;;;;;;18.55;28.39;94791.97;5062565;28;20052;-45
2021/11/14 10:45:30;;;;;;;43.92;36.42;;;;;;;18.42;28.71;94791.91;5066229;28;20493;-58
2021/11/14 10:47:59;;;;;;;42.83;37.42;;;;;;;18.34;28.96;94787.47;5054850;28;20052;-51
2021/11/14 10:50:32;;;;;;;46.97;37.58;;;;;;;19.04;27.86;94783.09;5072087;28;20071;-46
2021/11/14 10:53:02;;;;;;;46.47;38.58;;;;;;;19.16;26.97;94777.03;5078061;28;20481;-54
2021/11/14 10:55:38;;;;;;;78.50;65.57;;;;;;;19.27;26.65;94780.03;5068286;28;20052;-53
2021/11/14 10:58:05;;;;;;;54.53;45.55;;;;;;;20.08;25.61;94776.44;5070042;28;20049;-47
2021/11/14 11:00:32;;;;;;;49.95;43.35;;;;;;;20.12;25.18;94779.97;5057125;28;20045;-48
2021/11/14 11:03:01;;;;;;;53.08;44.35;;;;;;;19.24;26.40;94785.97;5057209;28;20049;-44
2021/11/14 11:05:30;;;;;;;54.03;43.58;;;;;;;19.18;26.27;94771.38;5067536;28;20363;-49
2021/11/14 11:08:04;;;;;;;55.22;43.80;;;;;;;19.56;25.58;94776.41;5059442;28;20056;-45
2021/11/14 11:10:31;;;;;;;52.33;44.05;;;;;;;19.28;26.18;94770.97;5056594;28;20041;-55
2021/11/14 11:13:01;;;;;;;58.30;46.92;;;;;;;19.21;25.95;94768.06;5056683;28;20060;-52
2021/11/14 11:15:37;;;;;;;55.80;46.40;;;;;;;19.39;25.68;94772.06;5067241;28;20044;-44
2021/11/14 11:18:05;;;;;;;53.20;46.03;;;;;;;20.27;25.22;94767.84;5060707;28;20511;-50
2021/11/14 11:20:32;;;;;;;51.92;43.90;;;;;;;20.69;25.35;94760.28;5062497;28;20049;-55
2021/11/14 11:23:03;;;;;;;51.92;44.03;;;;;;;20.52;24.67;94752.63;5056054;28;20053;-58
2021/11/14 11:25:38;;;;;;;54.08;43.50;;;;;;;20.42;24.85;94750.47;5066882;28;20040;-52
2021/11/14 11:28:09;;;;;;;53.60;43.72;;;;;;;20.34;24.81;94746.81;5075549;28;20052;-60